Time;durP1;ratioP1;P1;durP2;ratioP2;P2;SDS_P1;SDS_P2;PMS_P1;PMS_P2;Temp;Humidity;BMP_temperature;BMP_pressure;BME280_temperature;BME280_humidity;BME280_pressure;Samples;Min_cycle;Max_cycle;Signal;HPM_P1;HPM_P2
2023/12/11 00:01:16;;;;;;;1.65;0.30;;;;;;;;;;5039407;28;20037;-79
2023/12/11 00:03:41;;;;;;;3.83;0.40;;;;;;;;;;5041389;28;20029;-79
2023/12/11 00:06:07;;;;;;;0.73;0.63;;;;;;;;;;5043376;28;20175;-80
2023/12/11 00:08:33;;;;;;;0.45;0.45;;;;;;;;;;5039136;28;20459;-80
2023/12/11 00:10:58;;;;;;;3.83;0.47;;;;;;;;;;5038681;28;20638;-82
2023/12/11 00:13:23;;;;;;;1.05;0.32;;;;;;;;;;5038724;28;20029;-81
2023/12/11 00:15:49;;;;;;;1.10;0.30;;;;;;;;;;5037150;28;20039;-80
2023/12/11 00:18:14;;;;;;;0.30;0.30;;;;;;;;;;5039460;28;20592;-82
2023/12/11 00:20:40;;;;;;;0.95;0.52;;;;;;;;;;5034135;28;20049;-81
2023/12/11 00:23:06;;;;;;;0.20;0.20;;;;;;;;;;5035222;28;20350;-81
2023/12/11 00:25:31;;;;;;;0.50;0.50;;;;;;;;;;5041607;28;20571;-80
2023/12/11 00:27:57;;;;;;;2.13;0.43;;;;;;;;;;5048646;28;20128;-81
2023/12/11 00:30:22;;;;;;;0.20;0.20;;;;;;;;;;5039863;28;20067;-81
2023/12/11 00:32:48;;;;;;;0.40;0.40;;;;;;;;;;5034478;28;20025;-82
2023/12/11 00:35:14;;;;;;;1.75;0.55;;;;;;;;;;5035301;28;20033;-81
2023/12/11 00:37:40;;;;;;;0.28;0.28;;;;;;;;;;5041432;28;20029;-82
2023/12/11 00:40:06;;;;;;;1.08;0.68;;;;;;;;;;5037012;28;20032;-82
2023/12/11 00:42:31;;;;;;;0.40;0.40;;;;;;;;;;5040824;28;20052;-80
2023/12/11 00:44:57;;;;;;;2.00;0.30;;;;;;;;;;5043713;28;20025;-80
2023/12/11 00:47:22;;;;;;;0.20;0.20;;;;;;;;;;5054493;28;20126;-81
2023/12/11 00:49:48;;;;;;;0.20;0.20;;;;;;;;;;5043483;28;20118;-82
2023/12/11 00:52:14;;;;;;;0.20;0.20;;;;;;;;;;5032132;28;20099;-81
2023/12/11 00:54:39;;;;;;;2.78;0.70;;;;;;;;;;5034079;28;20021;-80
2023/12/11 00:57:04;;;;;;;0.20;0.20;;;;;;;;;;5046560;28;20441;-81
2023/12/11 00:59:30;;;;;;;0.20;0.20;;;;;;;;;;5048771;28;20124;-80
2023/12/11 01:01:55;;;;;;;0.30;0.30;;;;;;;;;;5048055;28;20127;-80
2023/12/11 01:04:21;;;;;;;0.28;0.28;;;;;;;;;;5046926;28;20037;-81
2023/12/11 01:06:46;;;;;;;0.20;0.20;;;;;;;;;;5039503;28;20738;-80
2023/12/11 01:09:12;;;;;;;2.72;0.40;;;;;;;;;;5035710;28;20166;-79
2023/12/11 01:11:38;;;;;;;0.25;0.25;;;;;;;;;;5034124;28;20025;-78
2023/12/11 01:14:04;;;;;;;0.17;0.17;;;;;;;;;;5026951;28;20149;-81
2023/12/11 01:16:29;;;;;;;0.57;0.38;;;;;;;;;;5036033;28;20085;-82
2023/12/11 01:18:55;;;;;;;0.20;0.20;;;;;;;;;;5040343;28;20083;-82
2023/12/11 01:21:20;;;;;;;0.68;0.50;;;;;;;;;;5035538;28;20035;-81
2023/12/11 01:23:46;;;;;;;0.73;0.30;;;;;;;;;;5038442;28;20388;-82
2023/12/11 01:26:11;;;;;;;1.08;0.65;;;;;;;;;;5039087;28;20434;-80
2023/12/11 01:28:36;;;;;;;0.20;0.20;;;;;;;;;;5035485;28;20091;-80
2023/12/11 01:31:02;;;;;;;0.32;0.32;;;;;;;;;;5039248;28;20033;-87
2023/12/11 01:33:28;;;;;;;0.32;0.32;;;;;;;;;;5033189;28;20545;-85
2023/12/11 01:35:53;;;;;;;0.25;0.20;;;;;;;;;;5037434;28;20031;-86
2023/12/11 01:38:18;;;;;;;0.63;0.55;;;;;;;;;;5044529;28;20029;-79
2023/12/11 01:40:44;;;;;;;0.60;0.30;;;;;;;;;;5039176;28;20026;-81
2023/12/11 01:43:14;;;;;;;1.38;0.30;;;;;;;;;;5038669;28;20036;-81
2023/12/11 01:45:39;;;;;;;0.47;0.40;;;;;;;;;;5050071;28;20029;-80
2023/12/11 01:48:05;;;;;;;0.50;0.50;;;;;;;;;;5035681;28;20501;-80
2023/12/11 01:50:31;;;;;;;0.28;0.28;;;;;;;;;;5034038;28;20039;-81
2023/12/11 01:52:56;;;;;;;0.30;0.30;;;;;;;;;;5036445;28;20018;-81
2023/12/11 01:55:23;;;;;;;0.30;0.30;;;;;;;;;;5039262;28;20612;-81
2023/12/11 01:57:48;;;;;;;0.43;0.43;;;;;;;;;;5036989;28;20040;-80
2023/12/11 02:00:14;;;;;;;0.30;0.30;;;;;;;;;;5037866;28;20025;-79
2023/12/11 02:02:39;;;;;;;3.47;0.45;;;;;;;;;;5040189;28;20040;-80
2023/12/11 02:05:05;;;;;;;0.30;0.30;;;;;;;;;;5040635;28;20044;-79
2023/12/11 02:07:31;;;;;;;0.30;0.28;;;;;;;;;;5034848;28;20108;-80
2023/12/11 02:09:56;;;;;;;0.45;0.45;;;;;;;;;;5034610;28;20108;-80
2023/12/11 02:12:21;;;;;;;0.60;0.30;;;;;;;;;;5034770;28;20500;-78
2023/12/11 02:14:47;;;;;;;1.13;0.52;;;;;;;;;;5034061;28;20075;-81
2023/12/11 02:17:12;;;;;;;1.55;0.30;;;;;;;;;;5038918;28;20036;-83
2023/12/11 02:19:38;;;;;;;0.30;0.30;;;;;;;;;;5036119;28;20465;-84
2023/12/11 02:22:03;;;;;;;0.60;0.30;;;;;;;;;;5034079;28;20037;-83
2023/12/11 02:24:33;;;;;;;0.30;0.30;;;;;;;;;;5036807;28;20025;-82
2023/12/11 02:26:59;;;;;;;0.30;0.30;;;;;;;;;;5039639;28;20022;-82
2023/12/11 02:29:24;;;;;;;0.80;0.22;;;;;;;;;;5040642;28;20016;-82
2023/12/11 02:31:49;;;;;;;0.40;0.40;;;;;;;;;;5040910;28;20090;-80
2023/12/11 02:34:15;;;;;;;2.53;0.63;;;;;;;;;;5039863;28;20065;-80
2023/12/11 02:36:40;;;;;;;0.20;0.20;;;;;;;;;;5041958;28;20106;-80
2023/12/11 02:39:07;;;;;;;0.30;0.30;;;;;;;;;;5037684;28;20056;-81
2023/12/11 02:41:33;;;;;;;0.30;0.30;;;;;;;;;;5048503;28;20605;-81
2023/12/11 02:43:58;;;;;;;0.52;0.45;;;;;;;;;;5047578;28;20024;-80
2023/12/11 02:46:24;;;;;;;0.20;0.20;;;;;;;;;;5050776;28;20041;-81
2023/12/11 02:48:49;;;;;;;0.35;0.35;;;;;;;;;;5039396;28;20025;-82
2023/12/11 02:51:16;;;;;;;0.73;0.30;;;;;;;;;;5038041;28;20029;-81
2023/12/11 02:53:42;;;;;;;0.20;0.20;;;;;;;;;;5050945;28;20075;-81
2023/12/11 02:56:07;;;;;;;0.20;0.20;;;;;;;;;;5038388;28;20037;-81
2023/12/11 02:58:33;;;;;;;0.73;0.45;;;;;;;;;;5038830;28;20036;-82
2023/12/11 03:00:59;;;;;;;0.30;0.30;;;;;;;;;;5037684;28;20029;-81
2023/12/11 03:03:24;;;;;;;0.20;0.20;;;;;;;;;;5040220;28;20020;-80
2023/12/11 03:05:50;;;;;;;1.58;0.50;;;;;;;;;;5042375;28;20062;-78
2023/12/11 03:08:15;;;;;;;0.20;0.20;;;;;;;;;;5041683;28;20024;-80
2023/12/11 03:10:41;;;;;;;0.30;0.30;;;;;;;;;;5037938;28;20025;-81
2023/12/11 03:13:06;;;;;;;0.30;0.30;;;;;;;;;;5038523;28;20072;-80
2023/12/11 03:15:32;;;;;;;0.28;0.20;;;;;;;;;;5043269;28;20040;-80
2023/12/11 03:17:58;;;;;;;0.52;0.40;;;;;;;;;;5038496;28;20436;-81
2023/12/11 03:20:23;;;;;;;0.20;0.20;;;;;;;;;;5037424;28;20028;-81
2023/12/11 03:22:48;;;;;;;0.38;0.38;;;;;;;;;;5036789;28;20018;-80
2023/12/11 03:25:14;;;;;;;0.20;0.20;;;;;;;;;;5037817;28;20540;-81
2023/12/11 03:27:39;;;;;;;0.40;0.40;;;;;;;;;;5036082;28;20101;-81
2023/12/11 03:30:06;;;;;;;1.08;0.30;;;;;;;;;;5038480;28;20133;-81
2023/12/11 03:32:32;;;;;;;0.20;0.20;;;;;;;;;;5041984;28;20040;-80
2023/12/11 03:34:57;;;;;;;0.30;0.30;;;;;;;;;;5044242;28;20112;-80
2023/12/11 03:37:23;;;;;;;0.32;0.32;;;;;;;;;;5038015;28;20033;-81
2023/12/11 03:39:48;;;;;;;0.30;0.30;;;;;;;;;;5035571;28;20041;-80
2023/12/11 03:42:14;;;;;;;0.30;0.30;;;;;;;;;;5044244;28;20035;-79
2023/12/11 03:44:39;;;;;;;0.17;0.17;;;;;;;;;;5043065;28;20028;-81
2023/12/11 03:47:05;;;;;;;0.40;0.40;;;;;;;;;;5038783;28;20044;-79
2023/12/11 03:49:30;;;;;;;1.00;0.50;;;;;;;;;;5047716;28;20044;-80
2023/12/11 03:51:55;;;;;;;0.20;0.20;;;;;;;;;;5037114;28;20046;-80
2023/12/11 03:54:21;;;;;;;0.45;0.35;;;;;;;;;;5039932;28;20017;-78
2023/12/11 03:56:46;;;;;;;0.45;0.45;;;;;;;;;;5040833;28;20593;-79
2023/12/11 03:59:11;;;;;;;0.20;0.20;;;;;;;;;;5037658;28;20033;-78
2023/12/11 04:01:37;;;;;;;0.38;0.38;;;;;;;;;;5043282;28;20025;-80
2023/12/11 04:04:03;;;;;;;0.22;0.22;;;;;;;;;;5037464;28;20450;-80
2023/12/11 04:06:28;;;;;;;0.35;0.35;;;;;;;;;;5040505;28;20060;-80
2023/12/11 04:08:54;;;;;;;0.50;0.50;;;;;;;;;;5036459;28;20032;-79
2023/12/11 04:11:19;;;;;;;0.35;0.35;;;;;;;;;;5038622;28;20025;-80
2023/12/11 04:13:44;;;;;;;0.45;0.45;;;;;;;;;;5036626;28;20032;-79
2023/12/11 04:16:10;;;;;;;0.30;0.30;;;;;;;;;;5043253;28;20045;-80
2023/12/11 04:18:36;;;;;;;0.88;0.50;;;;;;;;;;5040259;28;20076;-80
2023/12/11 04:21:02;;;;;;;0.20;0.20;;;;;;;;;;5045895;28;20036;-78
2023/12/11 04:23:27;;;;;;;0.10;0.10;;;;;;;;;;5058453;28;20013;-79
2023/12/11 04:25:54;;;;;;;0.30;0.30;;;;;;;;;;5053191;28;20032;-79
2023/12/11 04:28:21;;;;;;;0.20;0.20;;;;;;;;;;5046329;28;20117;-78
2023/12/11 04:30:46;;;;;;;0.10;0.10;;;;;;;;;;5056509;28;20533;-79
2023/12/11 04:33:12;;;;;;;0.15;0.15;;;;;;;;;;5042624;28;20017;-78
2023/12/11 04:35:37;;;;;;;0.10;0.10;;;;;;;;;;5035744;28;20033;-80
2023/12/11 04:38:02;;;;;;;0.10;0.10;;;;;;;;;;5037850;28;20436;-80
2023/12/11 04:40:28;;;;;;;0.20;0.20;;;;;;;;;;5033838;28;20029;-80
2023/12/11 04:42:53;;;;;;;0.20;0.20;;;;;;;;;;5038104;28;20033;-81
2023/12/11 04:45:19;;;;;;;0.95;0.30;;;;;;;;;;5039543;28;20033;-80
2023/12/11 04:47:44;;;;;;;0.10;0.10;;;;;;;;;;5037551;28;20075;-80
2023/12/11 04:50:09;;;;;;;0.32;0.30;;;;;;;;;;5037592;28;20538;-81
2023/12/11 04:52:35;;;;;;;0.60;0.20;;;;;;;;;;5041952;28;20029;-80
2023/12/11 04:55:00;;;;;;;1.27;0.30;;;;;;;;;;5037518;28;20033;-79
2023/12/11 04:57:25;;;;;;;0.15;0.15;;;;;;;;;;5040547;28;20026;-81
2023/12/11 04:59:51;;;;;;;0.30;0.30;;;;;;;;;;5035970;28;20031;-80
2023/12/11 05:02:16;;;;;;;0.38;0.38;;;;;;;;;;5036479;28;20021;-81
2023/12/11 05:04:41;;;;;;;0.30;0.30;;;;;;;;;;5036953;28;20594;-80
2023/12/11 05:07:07;;;;;;;0.63;0.50;;;;;;;;;;5035162;28;20079;-80
2023/12/11 05:09:32;;;;;;;0.60;0.38;;;;;;;;;;5040451;28;20032;-80
2023/12/11 05:11:57;;;;;;;0.20;0.20;;;;;;;;;;5035956;28;20060;-82
2023/12/11 05:14:23;;;;;;;0.75;0.30;;;;;;;;;;5037959;28;20033;-81
2023/12/11 05:16:48;;;;;;;0.20;0.20;;;;;;;;;;5041268;28;20442;-80
2023/12/11 05:19:13;;;;;;;0.28;0.28;;;;;;;;;;5054026;28;20518;-79
2023/12/11 05:21:43;;;;;;;0.52;0.20;;;;;;;;;;5043607;28;20060;-81
2023/12/11 05:24:08;;;;;;;0.30;0.30;;;;;;;;;;5036229;28;20119;-81
2023/12/11 05:26:33;;;;;;;0.22;0.22;;;;;;;;;;5035489;28;20657;-81
2023/12/11 05:29:00;;;;;;;0.30;0.30;;;;;;;;;;5038784;28;20025;-81
2023/12/11 05:31:25;;;;;;;0.20;0.20;;;;;;;;;;5034924;28;20060;-79
2023/12/11 05:33:51;;;;;;;0.30;0.30;;;;;;;;;;5039782;28;20021;-82
2023/12/11 05:36:16;;;;;;;0.45;0.40;;;;;;;;;;5042111;28;20650;-80
2023/12/11 05:38:42;;;;;;;0.63;0.20;;;;;;;;;;5043387;28;20084;-79
2023/12/11 05:41:07;;;;;;;0.30;0.30;;;;;;;;;;5046033;28;20071;-80
2023/12/11 05:43:32;;;;;;;0.30;0.30;;;;;;;;;;5037788;28;20025;-81
2023/12/11 05:45:58;;;;;;;0.10;0.10;;;;;;;;;;5048354;28;20529;-81
2023/12/11 05:48:23;;;;;;;0.22;0.22;;;;;;;;;;5039149;28;20121;-81
2023/12/11 05:50:48;;;;;;;0.10;0.10;;;;;;;;;;5043580;28;20063;-78
2023/12/11 05:53:14;;;;;;;0.38;0.38;;;;;;;;;;5043211;28;20036;-79
2023/12/11 05:55:39;;;;;;;0.28;0.28;;;;;;;;;;5046576;28;20037;-80
2023/12/11 05:58:04;;;;;;;0.45;0.45;;;;;;;;;;5051114;28;20550;-80
2023/12/11 06:00:30;;;;;;;0.30;0.30;;;;;;;;;;5045364;28;20099;-80
2023/12/11 06:02:55;;;;;;;2.03;0.50;;;;;;;;;;5048692;28;20476;-79
2023/12/11 06:05:21;;;;;;;0.52;0.52;;;;;;;;;;5048820;28;20076;-80
2023/12/11 06:07:46;;;;;;;0.60;0.60;;;;;;;;;;5054314;28;20033;-79
2023/12/11 06:10:14;;;;;;;0.45;0.22;;;;;;;;;;5053770;28;20489;-81
2023/12/11 06:12:40;;;;;;;0.15;0.15;;;;;;;;;;5050046;28;20066;-81
2023/12/11 06:15:05;;;;;;;0.40;0.40;;;;;;;;;;5050607;28;20038;-80
2023/12/11 06:17:31;;;;;;;0.50;0.50;;;;;;;;;;5047032;28;20053;-80
2023/12/11 06:19:56;;;;;;;0.50;0.50;;;;;;;;;;5046650;28;20025;-81
2023/12/11 06:22:21;;;;;;;0.20;0.20;;;;;;;;;;5049453;28;20033;-80
2023/12/11 06:24:47;;;;;;;2.05;0.85;;;;;;;;;;5045927;28;20056;-79
2023/12/11 06:27:12;;;;;;;0.20;0.20;;;;;;;;;;5045822;28;20018;-82
2023/12/11 06:29:39;;;;;;;0.45;0.30;;;;;;;;;;5048313;28;20033;-80
2023/12/11 06:32:05;;;;;;;0.20;0.20;;;;;;;;;;5048774;28;20044;-79
2023/12/11 06:34:30;;;;;;;1.65;0.45;;;;;;;;;;5044109;28;20021;-79
2023/12/11 06:36:55;;;;;;;1.20;0.55;;;;;;;;;;5049506;28;20030;-80
2023/12/11 06:39:21;;;;;;;0.32;0.32;;;;;;;;;;5041106;28;20032;-80
2023/12/11 06:41:46;;;;;;;0.20;0.20;;;;;;;;;;5049314;28;20426;-79
2023/12/11 06:44:12;;;;;;;0.77;0.40;;;;;;;;;;5052561;28;20025;-80
2023/12/11 06:46:38;;;;;;;0.38;0.38;;;;;;;;;;5046850;28;20089;-80
2023/12/11 06:49:03;;;;;;;0.45;0.45;;;;;;;;;;5039898;28;20106;-81
2023/12/11 06:51:29;;;;;;;0.10;0.10;;;;;;;;;;5031084;28;20068;-81
2023/12/11 06:54:00;;;;;;;1.65;0.40;;;;;;;;;;5049839;28;20068;-79
2023/12/11 06:56:27;;;;;;;4.10;0.50;;;;;;;;;;5051806;28;20168;-82
2023/12/11 06:58:53;;;;;;;6.65;0.52;;;;;;;;;;5048507;28;20037;-81
2023/12/11 07:01:18;;;;;;;0.63;0.40;;;;;;;;;;5038136;28;20036;-80
2023/12/11 07:03:48;;;;;;;0.43;0.43;;;;;;;;;;5039386;28;20555;-79
2023/12/11 07:06:15;;;;;;;0.77;0.45;;;;;;;;;;5036034;28;20033;-80
2023/12/11 07:08:40;;;;;;;0.10;0.10;;;;;;;;;;5043731;28;20106;-81
2023/12/11 07:11:06;;;;;;;0.50;0.50;;;;;;;;;;5039022;28;20037;-81
2023/12/11 07:13:31;;;;;;;0.70;0.47;;;;;;;;;;5039221;28;20034;-78
2023/12/11 07:15:57;;;;;;;0.63;0.63;;;;;;;;;;5036975;28;20036;-83
2023/12/11 07:18:22;;;;;;;0.63;0.40;;;;;;;;;;5041562;28;20088;-81
2023/12/11 07:20:48;;;;;;;2.88;0.70;;;;;;;;;;5041119;28;20037;-81
2023/12/11 07:23:13;;;;;;;0.80;0.63;;;;;;;;;;5038863;28;20025;-80
2023/12/11 07:25:39;;;;;;;0.47;0.40;;;;;;;;;;5041796;28;20092;-82
2023/12/11 07:28:04;;;;;;;0.30;0.30;;;;;;;;;;5037624;28;20053;-81
2023/12/11 07:30:30;;;;;;;0.45;0.38;;;;;;;;;;5037018;28;20021;-86
2023/12/11 07:32:56;;;;;;;0.30;0.30;;;;;;;;;;5040104;28;20083;-81
2023/12/11 07:35:21;;;;;;;0.85;0.55;;;;;;;;;;5063215;22;20041;-78
2023/12/11 07:37:47;;;;;;;0.45;0.38;;;;;;;;;;5053677;28;20028;-78
2023/12/11 07:40:12;;;;;;;0.63;0.50;;;;;;;;;;5039182;28;20065;-78
2023/12/11 07:42:37;;;;;;;0.43;0.43;;;;;;;;;;5055611;28;20028;-78
2023/12/11 07:45:07;;;;;;;0.35;0.35;;;;;;;;;;5061514;28;20100;-78
2023/12/11 07:47:32;;;;;;;0.50;0.43;;;;;;;;;;5062696;28;20478;-78
2023/12/11 07:49:58;;;;;;;0.52;0.38;;;;;;;;;;5058450;28;20096;-78
2023/12/11 07:52:29;;;;;;;0.40;0.40;;;;;;;;;;5054799;28;20032;-77
2023/12/11 07:54:54;;;;;;;0.52;0.52;;;;;;;;;;5050627;28;20020;-78
2023/12/11 07:57:20;;;;;;;0.43;0.43;;;;;;;;;;5063779;28;20035;-79
2023/12/11 07:59:45;;;;;;;0.80;0.57;;;;;;;;;;5054643;28;20028;-79
2023/12/11 08:02:10;;;;;;;2.20;0.47;;;;;;;;;;5061629;28;20361;-78
2023/12/11 08:04:39;;;;;;;1.10;0.40;;;;;;;;;;5064164;28;20032;-80
2023/12/11 08:07:04;;;;;;;0.30;0.30;;;;;;;;;;5042560;28;20043;-78
2023/12/11 08:09:30;;;;;;;1.27;0.38;;;;;;;;;;5060089;28;20017;-79
2023/12/11 08:12:08;;;;;;;0.52;0.38;;;;;;;;;;5067096;28;20013;-84
2023/12/11 08:14:33;;;;;;;0.50;0.50;;;;;;;;;;5046764;28;20017;-78
2023/12/11 08:16:59;;;;;;;1.75;0.57;;;;;;;;;;5058792;28;20378;-78
2023/12/11 08:19:25;;;;;;;1.10;0.57;;;;;;;;;;5066728;28;20085;-78
2023/12/11 08:21:53;;;;;;;0.68;0.68;;;;;;;;;;5064425;28;20028;-84
2023/12/11 08:24:19;;;;;;;0.30;0.30;;;;;;;;;;5061741;28;20029;-82
2023/12/11 08:26:44;;;;;;;1.20;0.30;;;;;;;;;;5059278;28;20474;-81
2023/12/11 08:29:10;;;;;;;0.50;0.50;;;;;;;;;;5060710;28;20025;-80
2023/12/11 08:31:35;;;;;;;0.35;0.32;;;;;;;;;;5061283;28;20027;-78
2023/12/11 08:34:01;;;;;;;0.52;0.38;;;;;;;;;;5063443;28;20136;-79
2023/12/11 08:36:26;;;;;;;0.47;0.47;;;;;;;;;;5063235;28;20134;-78
2023/12/11 08:38:52;;;;;;;0.40;0.40;;;;;;;;;;5053632;28;20032;-78
2023/12/11 08:41:17;;;;;;;2.63;0.70;;;;;;;;;;5067689;28;20019;-79
2023/12/11 08:43:42;;;;;;;3.97;0.68;;;;;;;;;;5061586;28;20017;-78
2023/12/11 08:46:08;;;;;;;1.25;0.47;;;;;;;;;;5063921;28;20092;-80
2023/12/11 08:48:33;;;;;;;1.00;0.30;;;;;;;;;;5045679;28;20025;-78
2023/12/11 08:50:58;;;;;;;0.30;0.30;;;;;;;;;;5063867;28;20054;-79
2023/12/11 08:53:24;;;;;;;0.82;0.68;;;;;;;;;;5061498;28;20037;-79
2023/12/11 08:55:50;;;;;;;3.20;0.32;;;;;;;;;;5062408;28;20030;-82
2023/12/11 08:58:16;;;;;;;0.82;0.30;;;;;;;;;;5068014;28;20108;-79
2023/12/11 09:00:42;;;;;;;0.60;0.60;;;;;;;;;;5036107;28;20394;-79
2023/12/11 09:03:08;;;;;;;0.60;0.40;;;;;;;;;;5059699;28;20020;-79
2023/12/11 09:05:33;;;;;;;0.30;0.30;;;;;;;;;;5061215;28;20086;-78
2023/12/11 09:07:59;;;;;;;0.20;0.20;;;;;;;;;;5044215;28;20025;-78
2023/12/11 09:10:24;;;;;;;4.10;0.70;;;;;;;;;;5053309;28;20021;-80
2023/12/11 09:12:49;;;;;;;1.45;0.60;;;;;;;;;;5045636;28;20033;-79
2023/12/11 09:15:15;;;;;;;1.27;1.10;;;;;;;;;;5056520;28;20033;-78
2023/12/11 09:17:41;;;;;;;0.40;0.40;;;;;;;;;;5052136;28;20108;-78
2023/12/11 09:20:09;;;;;;;1.70;0.70;;;;;;;;;;5053988;28;20045;-79
2023/12/11 09:22:39;;;;;;;0.77;0.60;;;;;;;;;;5051421;28;20057;-79
2023/12/11 09:25:05;;;;;;;0.20;0.20;;;;;;;;;;5053015;28;20032;-78
2023/12/11 09:27:30;;;;;;;3.13;0.43;;;;;;;;;;5053275;28;20083;-78
2023/12/11 09:29:56;;;;;;;1.75;0.65;;;;;;;;;;5052886;28;20513;-79
2023/12/11 09:32:22;;;;;;;1.65;0.77;;;;;;;;;;5052307;28;20040;-79
2023/12/11 09:34:47;;;;;;;0.32;0.32;;;;;;;;;;5053437;28;20108;-78
2023/12/11 09:37:13;;;;;;;1.85;0.60;;;;;;;;;;5056404;28;20072;-79
2023/12/11 09:39:39;;;;;;;0.82;0.50;;;;;;;;;;5058641;28;20029;-78
2023/12/11 09:42:05;;;;;;;1.13;0.40;;;;;;;;;;5052842;28;20036;-79
2023/12/11 09:44:31;;;;;;;0.43;0.43;;;;;;;;;;5053090;28;20032;-78
2023/12/11 09:47:25;;;;;;;0.40;0.40;;;;;;;;;;5053753;28;20035;-78
2023/12/11 09:49:51;;;;;;;0.60;0.60;;;;;;;;;;5057365;28;20522;-78
2023/12/11 09:52:18;;;;;;;2.03;0.52;;;;;;;;;;5058464;28;20029;-78
2023/12/11 09:54:43;;;;;;;0.50;0.32;;;;;;;;;;5064800;28;20031;-78
2023/12/11 09:57:14;;;;;;;0.43;0.43;;;;;;;;;;5060184;28;20060;-78
2023/12/11 09:59:41;;;;;;;0.43;0.40;;;;;;;;;;5051388;28;20025;-78
2023/12/11 10:02:12;;;;;;;1.15;0.70;;;;;;;;;;5052148;28;20029;-78
2023/12/11 10:04:38;;;;;;;0.38;0.32;;;;;;;;;;5053216;28;20021;-78
2023/12/11 10:07:03;;;;;;;2.70;0.60;;;;;;;;;;5057930;28;20025;-79
2023/12/11 10:09:35;;;;;;;0.28;0.28;;;;;;;;;;5048643;28;20021;-78
2023/12/11 10:12:04;;;;;;;0.30;0.30;;;;;;;;;;5051437;28;20043;-78
2023/12/11 10:14:30;;;;;;;0.30;0.28;;;;;;;;;;5051043;28;20033;-79
2023/12/11 10:16:57;;;;;;;0.75;0.50;;;;;;;;;;5060515;28;20073;-80
2023/12/11 10:19:32;;;;;;;0.35;0.35;;;;;;;;;;5043075;28;20047;-78
2023/12/11 10:21:59;;;;;;;0.55;0.55;;;;;;;;;;5054594;28;20020;-78
2023/12/11 10:24:24;;;;;;;0.85;0.50;;;;;;;;;;5054438;28;20407;-78
2023/12/11 10:26:56;;;;;;;1.77;0.52;;;;;;;;;;5054326;28;20020;-78
2023/12/11 10:29:27;;;;;;;0.32;0.32;;;;;;;;;;5054477;28;20028;-79
2023/12/11 10:32:04;;;;;;;0.40;0.30;;;;;;;;;;5062754;28;20017;-78
2023/12/11 10:34:43;;;;;;;3.30;0.47;;;;;;;;;;5054589;28;20100;-78
2023/12/11 10:37:13;;;;;;;4.00;0.45;;;;;;;;;;5047283;28;20017;-78
2023/12/11 10:39:51;;;;;;;0.55;0.20;;;;;;;;;;5062757;28;20021;-79
2023/12/11 10:42:17;;;;;;;0.20;0.20;;;;;;;;;;5053568;28;20116;-79
2023/12/11 10:44:43;;;;;;;1.95;0.85;;;;;;;;;;5055711;28;20078;-79
2023/12/11 10:47:08;;;;;;;2.20;0.43;;;;;;;;;;5050246;28;20033;-79
2023/12/11 10:49:34;;;;;;;1.02;0.45;;;;;;;;;;5054368;28;20036;-79
2023/12/11 10:52:02;;;;;;;1.27;0.63;;;;;;;;;;5054520;28;20024;-79
2023/12/11 10:54:28;;;;;;;7.32;0.63;;;;;;;;;;5054240;28;20029;-79
2023/12/11 10:56:53;;;;;;;2.20;0.80;;;;;;;;;;5054985;28;20070;-79
2023/12/11 10:59:19;;;;;;;1.25;0.30;;;;;;;;;;5055027;28;20430;-78
2023/12/11 11:01:47;;;;;;;2.15;0.75;;;;;;;;;;5054745;28;20506;-79
2023/12/11 11:04:16;;;;;;;1.95;0.65;;;;;;;;;;5051887;28;20107;-79
2023/12/11 11:06:51;;;;;;;0.63;0.60;;;;;;;;;;5057550;28;20028;-79
2023/12/11 11:09:28;;;;;;;0.85;0.40;;;;;;;;;;5054606;28;20042;-78
2023/12/11 11:12:03;;;;;;;0.65;0.30;;;;;;;;;;5052346;28;20036;-78
2023/12/11 11:14:46;;;;;;;2.00;0.73;;;;;;;;;;5052127;28;20415;-80
2023/12/11 11:17:11;;;;;;;2.33;0.68;;;;;;;;;;5065520;28;20485;-79
2023/12/11 11:19:56;;;;;;;1.75;0.85;;;;;;;;;;5056782;28;20043;-79
2023/12/11 11:22:22;;;;;;;0.82;0.47;;;;;;;;;;5053032;28;20024;-79
2023/12/11 11:24:47;;;;;;;2.55;0.85;;;;;;;;;;5054196;28;20059;-79
2023/12/11 11:27:42;;;;;;;0.30;0.30;;;;;;;;;;5054746;28;20025;-78
2023/12/11 11:30:08;;;;;;;2.17;1.20;;;;;;;;;;5051775;28;20059;-79
2023/12/11 11:33:06;;;;;;;0.70;0.63;;;;;;;;;;5054564;28;20021;-79
2023/12/11 11:35:47;;;;;;;3.22;0.82;;;;;;;;;;5014511;28;20040;-79
2023/12/11 11:38:15;;;;;;;0.63;0.30;;;;;;;;;;5059485;28;20021;-78
2023/12/11 11:40:43;;;;;;;0.47;0.40;;;;;;;;;;5053635;28;20060;-79
2023/12/11 11:43:09;;;;;;;1.65;0.52;;;;;;;;;;5054001;28;20064;-79
2023/12/11 11:45:34;;;;;;;2.33;0.70;;;;;;;;;;5055601;28;20021;-79
2023/12/11 11:48:00;;;;;;;1.70;1.00;;;;;;;;;;5053594;28;20142;-78
2023/12/11 11:50:25;;;;;;;0.93;0.70;;;;;;;;;;5053420;28;20032;-78
2023/12/11 11:52:58;;;;;;;3.03;0.73;;;;;;;;;;5053156;28;20033;-79
2023/12/11 11:55:27;;;;;;;1.05;0.63;;;;;;;;;;5050811;28;20017;-79
2023/12/11 11:57:53;;;;;;;0.52;0.50;;;;;;;;;;5050286;28;20459;-79
2023/12/11 12:00:31;;;;;;;3.85;0.80;;;;;;;;;;5037271;28;20033;-79
2023/12/11 12:03:00;;;;;;;0.20;0.20;;;;;;;;;;5053331;28;20031;-79
2023/12/11 12:05:26;;;;;;;1.15;0.30;;;;;;;;;;5037306;28;20048;-79
2023/12/11 12:07:55;;;;;;;1.48;0.65;;;;;;;;;;5054059;28;20463;-79
2023/12/11 12:10:20;;;;;;;2.58;0.68;;;;;;;;;;5053284;28;20025;-79
2023/12/11 12:12:51;;;;;;;1.15;0.80;;;;;;;;;;5053501;28;20033;-79
2023/12/11 12:15:17;;;;;;;1.85;0.73;;;;;;;;;;5055998;28;20083;-79
2023/12/11 12:17:43;;;;;;;2.35;0.80;;;;;;;;;;5061187;28;20029;-79
2023/12/11 12:20:19;;;;;;;2.45;0.73;;;;;;;;;;5043324;28;20021;-79
2023/12/11 12:23:04;;;;;;;0.20;0.20;;;;;;;;;;5053360;28;20029;-79
2023/12/11 12:25:31;;;;;;;5.47;0.60;;;;;;;;;;5052477;28;20076;-78
2023/12/11 12:28:08;;;;;;;3.50;0.77;;;;;;;;;;5052482;28;20021;-80
2023/12/11 12:30:34;;;;;;;1.08;0.50;;;;;;;;;;5063494;28;20032;-79
2023/12/11 12:33:02;;;;;;;0.57;0.30;;;;;;;;;;5060763;28;20111;-78
2023/12/11 12:35:28;;;;;;;0.80;0.22;;;;;;;;;;5051256;28;20044;-78
2023/12/11 12:37:56;;;;;;;3.67;0.73;;;;;;;;;;5051347;28;20024;-79
2023/12/11 12:40:22;;;;;;;0.80;0.60;;;;;;;;;;5052268;28;20025;-78
2023/12/11 12:42:47;;;;;;;0.65;0.57;;;;;;;;;;5050421;28;20028;-78
2023/12/11 12:45:28;;;;;;;2.03;0.88;;;;;;;;;;5064707;28;20028;-79
2023/12/11 12:47:54;;;;;;;0.82;0.63;;;;;;;;;;5046564;28;20017;-79
2023/12/11 12:50:22;;;;;;;1.75;0.50;;;;;;;;;;5046380;28;20031;-78
2023/12/11 12:52:47;;;;;;;1.45;0.55;;;;;;;;;;5051821;28;20060;-78
2023/12/11 12:55:13;;;;;;;1.20;0.55;;;;;;;;;;5050798;28;20041;-78
2023/12/11 12:57:38;;;;;;;4.13;1.35;;;;;;;;;;5059607;28;20029;-78
2023/12/11 13:00:05;;;;;;;0.68;0.43;;;;;;;;;;5060466;28;20032;-78
2023/12/11 13:02:31;;;;;;;2.53;0.50;;;;;;;;;;5046884;28;20025;-78
2023/12/11 13:04:57;;;;;;;1.50;0.80;;;;;;;;;;5050619;28;20104;-79
2023/12/11 13:07:23;;;;;;;2.50;1.02;;;;;;;;;;5052478;28;20089;-78
2023/12/11 13:09:49;;;;;;;3.75;0.50;;;;;;;;;;5052135;28;20123;-78
2023/12/11 13:12:18;;;;;;;1.83;0.60;;;;;;;;;;5052416;28;20534;-78
2023/12/11 13:14:43;;;;;;;0.65;0.45;;;;;;;;;;5052700;28;20021;-79
2023/12/11 13:17:08;;;;;;;0.60;0.60;;;;;;;;;;5052301;28;20051;-78
2023/12/11 13:19:34;;;;;;;6.05;1.02;;;;;;;;;;5057770;28;20487;-79
2023/12/11 13:21:59;;;;;;;1.45;0.38;;;;;;;;;;5052686;28;20028;-79
2023/12/11 13:24:25;;;;;;;0.80;0.73;;;;;;;;;;5052330;28;20021;-79
2023/12/11 13:26:50;;;;;;;0.38;0.30;;;;;;;;;;5051877;28;20079;-79
2023/12/11 13:29:15;;;;;;;0.68;0.68;;;;;;;;;;5050197;28;20060;-78
2023/12/11 13:31:41;;;;;;;0.50;0.30;;;;;;;;;;5048247;28;20029;-78
2023/12/11 13:34:06;;;;;;;2.08;0.57;;;;;;;;;;5052164;28;20021;-78
2023/12/11 13:36:31;;;;;;;1.10;1.00;;;;;;;;;;5043991;22;20034;-86
2023/12/11 13:38:57;;;;;;;3.17;0.50;;;;;;;;;;5018178;28;20017;-85
2023/12/11 13:41:22;;;;;;;3.67;0.88;;;;;;;;;;5028809;28;20017;-85
2023/12/11 13:43:47;;;;;;;4.72;0.73;;;;;;;;;;5030493;28;20411;-85
2023/12/11 13:46:13;;;;;;;4.93;1.17;;;;;;;;;;5030482;28;20017;-85
2023/12/11 13:48:38;;;;;;;1.65;0.65;;;;;;;;;;5032023;28;20020;-87
2023/12/11 13:51:05;;;;;;;4.63;1.08;;;;;;;;;;5012229;28;20026;-87
2023/12/11 13:53:31;;;;;;;1.70;0.90;;;;;;;;;;5025814;28;20022;-85
2023/12/11 13:55:56;;;;;;;1.25;0.50;;;;;;;;;;5034312;28;20108;-85
2023/12/11 13:58:22;;;;;;;5.32;1.17;;;;;;;;;;5041224;28;20496;-85
2023/12/11 14:00:47;;;;;;;2.13;0.85;;;;;;;;;;5037029;28;20542;-85
2023/12/11 14:03:15;;;;;;;0.30;0.30;;;;;;;;;;5035363;28;20540;-87
2023/12/11 14:05:40;;;;;;;0.85;0.35;;;;;;;;;;5023843;28;20025;-85
2023/12/11 14:08:06;;;;;;;3.40;0.98;;;;;;;;;;5033981;28;20036;-87
2023/12/11 14:10:33;;;;;;;3.40;0.60;;;;;;;;;;5026664;28;20021;-87
2023/12/11 14:12:58;;;;;;;6.35;0.85;;;;;;;;;;5023490;28;20026;-86
2023/12/11 14:15:25;;;;;;;2.50;1.27;;;;;;;;;;5034458;28;20025;-86
2023/12/11 14:17:50;;;;;;;1.77;0.77;;;;;;;;;;5033998;28;20485;-87
2023/12/11 14:20:17;;;;;;;4.40;0.88;;;;;;;;;;5047281;28;20036;-88
2023/12/11 14:22:43;;;;;;;2.15;0.77;;;;;;;;;;5023790;28;20035;-87
2023/12/11 14:25:08;;;;;;;2.25;0.52;;;;;;;;;;5016891;28;20108;-87
2023/12/11 14:27:34;;;;;;;4.30;0.88;;;;;;;;;;5034080;28;20013;-87
2023/12/11 14:29:59;;;;;;;7.68;1.42;;;;;;;;;;5033751;28;20476;-87
2023/12/11 14:32:25;;;;;;;7.85;1.35;;;;;;;;;;5033113;28;20104;-87
2023/12/11 14:34:50;;;;;;;3.05;0.93;;;;;;;;;;5015562;28;20025;-87
2023/12/11 14:37:16;;;;;;;2.30;1.00;;;;;;;;;;5033361;28;20446;-87
2023/12/11 14:39:42;;;;;;;3.55;0.90;;;;;;;;;;5027932;28;20025;-84